Time;durP1;ratioP1;P1;durP2;ratioP2;P2;SDS_P1;SDS_P2;PMS_P1;PMS_P2;Temp;Humidity;BMP_temperature;BMP_pressure;BME280_temperature;BME280_humidity;BME280_pressure;Samples;Min_cycle;Max_cycle;Signal;HPM_P1;HPM_P2
2023/10/12 00:02:09;;;;;;;6.47;2.10;;;13.90;99.90;;;;;;7371287;19;20014;-63
2023/10/12 00:04:43;;;;;;;11.40;2.15;;;13.80;99.90;;;;;;7361778;19;20913;-65
2023/10/12 00:07:33;;;;;;;8.23;1.90;;;13.80;99.90;;;;;;7376641;19;20015;-63
2023/10/12 00:10:20;;;;;;;9.88;2.40;;;13.80;99.90;;;;;;7373642;19;20115;-63
2023/10/12 00:12:47;;;;;;;10.30;2.50;;;13.80;99.90;;;;;;7375801;19;20029;-65
2023/10/12 00:18:10;;;;;;;12.68;3.13;;;13.70;99.90;;;;;;7374437;19;20382;-66
2023/10/12 00:20:37;;;;;;;9.55;2.22;;;13.60;99.90;;;;;;7370797;19;20022;-65
2023/10/12 00:23:14;;;;;;;12.60;2.83;;;13.60;99.90;;;;;;7371947;19;20018;-64
2023/10/12 00:25:47;;;;;;;10.63;3.10;;;13.60;99.90;;;;;;7369455;19;20051;-65
2023/10/12 00:28:16;;;;;;;13.90;2.40;;;13.60;99.90;;;;;;7372890;19;20022;-66
2023/10/12 00:30:57;;;;;;;7.97;2.13;;;13.60;99.90;;;;;;7364748;19;20018;-66
2023/10/12 00:33:24;;;;;;;14.90;3.17;;;13.50;99.90;;;;;;7374207;19;20019;-66
2023/10/12 00:36:19;;;;;;;16.67;2.92;;;13.50;99.90;;;;;;7370972;19;20019;-65
2023/10/12 00:38:46;;;;;;;14.82;3.28;;;13.50;99.90;;;;;;7371472;19;20023;-64
2023/10/12 00:41:14;;;;;;;11.65;2.67;;;13.50;99.90;;;;;;7371323;19;20018;-65
2023/10/12 00:51:52;;;;;;;12.02;3.42;;;13.50;99.90;;;;;;7372567;19;20382;-62
2023/10/12 00:57:05;;;;;;;11.25;3.10;;;13.50;99.90;;;;;;7369545;19;20405;-63
2023/10/12 00:59:34;;;;;;;11.07;2.78;;;13.50;99.90;;;;;;7370640;19;20035;-64
2023/10/12 01:02:02;;;;;;;16.45;2.92;;;13.50;99.90;;;;;;7373739;19;20019;-64
2023/10/12 01:04:30;;;;;;;11.50;3.33;;;13.50;99.90;;;;;;7385541;19;20021;-65
2023/10/12 01:06:59;;;;;;;9.50;2.65;;;13.40;99.90;;;;;;7385755;19;20046;-66
2023/10/12 01:09:29;;;;;;;11.80;2.80;;;13.40;99.90;;;;;;7383477;19;20082;-66
2023/10/12 01:12:00;;;;;;;9.57;3.05;;;13.40;99.90;;;;;;7386650;19;20026;-63
2023/10/12 01:14:30;;;;;;;14.27;2.85;;;13.50;99.90;;;;;;7383467;19;20028;-63
2023/10/12 01:17:04;;;;;;;12.90;2.60;;;13.40;99.90;;;;;;7385546;19;20040;-64
2023/10/12 01:19:31;;;;;;;15.20;3.25;;;13.40;99.90;;;;;;7386413;19;20018;-64
2023/10/12 01:22:11;;;;;;;10.43;2.70;;;13.40;99.90;;;;;;7384090;19;20922;-65
2023/10/12 01:27:25;;;;;;;14.98;3.25;;;13.30;99.90;;;;;;7383753;19;20386;-64
2023/10/12 01:29:53;;;;;;;11.93;2.90;;;13.30;99.90;;;;;;7384883;19;20030;-64
2023/10/12 01:34:51;;;;;;;15.40;3.35;;;13.30;99.90;;;;;;7386127;19;20772;-63
2023/10/12 01:37:22;;;;;;;12.95;3.55;;;13.30;99.90;;;;;;7378428;19;20035;-63
2023/10/12 01:45:32;;;;;;;12.50;3.95;;;13.30;99.90;;;;;;7383662;19;20018;-64
2023/10/12 01:48:22;;;;;;;13.82;3.85;;;13.30;99.90;;;;;;7378940;19;20030;-62
2023/10/12 01:50:52;;;;;;;16.35;3.40;;;13.30;99.90;;;;;;7387267;19;20026;-62
2023/10/12 01:55:51;;;;;;;10.20;2.80;;;13.20;99.90;;;;;;7385041;19;20485;-62
2023/10/12 01:58:20;;;;;;;;;;;13.20;99.90;;;;;;7383064;19;20097;-63
2023/10/12 02:00:51;;;;;;;17.58;3.47;;;13.20;99.90;;;;;;7386119;19;20022;-63
2023/10/12 02:03:32;;;;;;;12.55;3.53;;;13.20;99.90;;;;;;7377099;19;20474;-66
2023/10/12 02:05:59;;;;;;;15.68;3.17;;;13.20;99.90;;;;;;7387637;19;20041;-66
2023/10/12 02:08:34;;;;;;;15.77;3.83;;;13.20;99.90;;;;;;7383078;19;20026;-64
2023/10/12 02:11:11;;;;;;;19.75;4.13;;;13.20;99.90;;;;;;7382592;19;20505;-67
2023/10/12 02:13:39;;;;;;;17.38;4.18;;;13.10;99.90;;;;;;7381086;19;20487;-67
2023/10/12 02:16:12;;;;;;;13.40;3.75;;;13.10;99.90;;;;;;7374224;19;20026;-67
2023/10/12 02:18:43;;;;;;;18.98;4.43;;;13.10;99.90;;;;;;7373954;19;20883;-67
2023/10/12 02:21:11;;;;;;;16.45;4.65;;;13.10;99.90;;;;;;7374255;19;20030;-65
2023/10/12 02:23:54;;;;;;;15.80;4.22;;;13.10;99.90;;;;;;7370039;19;20054;-66
2023/10/12 02:29:35;;;;;;;19.90;4.43;;;13.10;99.90;;;;;;7372341;19;20026;-66
2023/10/12 02:32:16;;;;;;;13.40;4.40;;;13.20;99.90;;;;;;7375563;19;20026;-66
2023/10/12 02:34:43;;;;;;;19.55;4.50;;;13.10;99.90;;;;;;7377718;19;20032;-66
2023/10/12 02:39:41;;;;;;;15.23;4.68;;;13.10;99.90;;;;;;7368858;19;20115;-65
2023/10/12 02:47:22;;;;;;;16.13;4.72;;;13.10;99.90;;;;;;7376994;19;20019;-64
2023/10/12 02:52:33;;;;;;;16.23;4.72;;;13.00;99.90;;;;;;7373762;19;20062;-63
2023/10/12 02:58:00;;;;;;;16.45;4.90;;;13.00;99.90;;;;;;7375108;19;20363;-66
2023/10/12 03:00:35;;;;;;;16.17;4.18;;;13.10;99.90;;;;;;7369760;19;20014;-67
2023/10/12 03:03:20;;;;;;;14.60;4.03;;;13.00;99.90;;;;;;7372744;19;20083;-66
2023/10/12 03:05:51;;;;;;;15.68;4.18;;;13.00;99.90;;;;;;7377592;19;20046;-67
2023/10/12 03:08:20;;;;;;;15.30;4.25;;;13.00;99.90;;;;;;7372691;19;20048;-67
2023/10/12 03:11:01;;;;;;;13.05;4.57;;;13.00;99.90;;;;;;7374831;19;20018;-66
2023/10/12 03:13:38;;;;;;;20.35;4.57;;;13.00;99.90;;;;;;7371486;19;20030;-66
2023/10/12 03:16:24;;;;;;;11.95;3.83;;;12.90;99.90;;;;;;7375435;19;20538;-66
2023/10/12 03:19:37;;;;;;;19.08;4.35;;;12.90;99.90;;;;;;7373118;19;20078;-67
2023/10/12 03:21:37;;;;;;;15.82;4.10;;;12.90;99.90;;;;;;7372772;19;20585;-65
2023/10/12 03:24:05;;;;;;;12.57;4.60;;;12.90;99.90;;;;;;7373317;19;20026;-66
2023/10/12 03:26:33;;;;;;;11.73;3.80;;;12.90;99.90;;;;;;7376649;19;20111;-66
2023/10/12 03:31:57;;;;;;;15.02;4.50;;;12.80;99.90;;;;;;7370638;19;20022;-65
2023/10/12 03:34:46;;;;;;;19.27;5.75;;;12.80;99.90;;;;;;7374828;19;20049;-65
2023/10/12 03:37:14;;;;;;;14.20;4.60;;;12.90;99.90;;;;;;7370195;19;20019;-64
2023/10/12 03:45:09;;;;;;;12.35;4.32;;;12.80;99.90;;;;;;7376033;19;20022;-67
2023/10/12 03:48:03;;;;;;;13.18;4.50;;;12.80;99.90;;;;;;7371535;19;20019;-67
2023/10/12 03:50:50;;;;;;;18.65;4.03;;;12.80;99.90;;;;;;7372196;19;20029;-67
2023/10/12 03:53:20;;;;;;;16.75;4.65;;;12.80;99.90;;;;;;7373259;19;20042;-65
2023/10/12 03:55:56;;;;;;;18.85;4.30;;;12.80;99.90;;;;;;7374992;19;20019;-67
2023/10/12 03:58:24;;;;;;;13.35;4.75;;;12.80;99.90;;;;;;7371306;19;20022;-66
2023/10/12 04:01:10;;;;;;;13.27;4.78;;;12.80;99.90;;;;;;7372560;19;20581;-66
2023/10/12 04:03:39;;;;;;;13.65;4.65;;;12.80;99.90;;;;;;7367880;19;20051;-66
2023/10/12 04:06:15;;;;;;;16.73;5.20;;;12.80;99.90;;;;;;7372695;19;20022;-67
2023/10/12 04:08:54;;;;;;;18.95;5.07;;;12.80;99.90;;;;;;7371767;19;20696;-66
2023/10/12 04:11:47;;;;;;;22.40;5.20;;;12.80;99.90;;;;;;7371648;19;20483;-67
2023/10/12 04:17:09;;;;;;;16.67;5.75;;;12.80;99.90;;;;;;7369533;19;20018;-65
2023/10/12 04:19:39;;;;;;;16.98;4.85;;;12.80;99.90;;;;;;7371839;19;20015;-65
2023/10/12 04:22:16;;;;;;;18.88;5.55;;;12.80;99.90;;;;;;7372575;19;20018;-66
2023/10/12 04:24:43;;;;;;;16.65;4.72;;;12.80;99.90;;;;;;7371423;19;20105;-69
2023/10/12 04:29:59;;;;;;;12.50;4.78;;;12.80;99.90;;;;;;7370607;19;20024;-67
2023/10/12 04:32:51;;;;;;;15.05;4.82;;;12.80;99.90;;;;;;7372947;19;20023;-66
2023/10/12 04:38:08;;;;;;;14.70;4.43;;;12.80;99.90;;;;;;7370812;19;20014;-66
2023/10/12 04:40:43;;;;;;;12.88;4.63;;;12.90;99.90;;;;;;7374857;19;20379;-67
2023/10/12 04:43:10;;;;;;;18.33;5.00;;;12.80;99.90;;;;;;7372980;19;20042;-66
2023/10/12 04:48:41;;;;;;;13.27;4.97;;;12.80;99.90;;;;;;7367917;19;20022;-66
2023/10/12 04:51:08;;;;;;;15.38;4.72;;;12.90;99.90;;;;;;7370159;19;20022;-65
2023/10/12 04:56:19;;;;;;;18.45;4.78;;;12.90;99.90;;;;;;7375638;19;20386;-66
2023/10/12 04:58:59;;;;;;;18.55;4.63;;;12.90;99.90;;;;;;7371407;19;20027;-67
2023/10/12 05:02:06;;;;;;;17.38;4.32;;;12.80;99.90;;;;;;7372807;19;20985;-67
2023/10/12 05:09:50;;;;;;;10.95;3.78;;;12.80;99.90;;;;;;7375129;19;20114;-67
2023/10/12 05:12:28;;;;;;;14.85;4.28;;;12.80;99.90;;;;;;7369202;19;20039;-68
2023/10/12 05:15:00;;;;;;;13.13;4.05;;;12.90;99.90;;;;;;7372567;19;20075;-69
2023/10/12 05:17:28;;;;;;;16.42;4.05;;;12.90;99.90;;;;;;7367271;19;20026;-67
2023/10/12 05:19:54;;;;;;;13.43;3.55;;;12.90;99.90;;;;;;7374273;19;20018;-67
2023/10/12 05:22:20;;;;;;;14.60;3.97;;;12.90;99.90;;;;;;7369785;19;20052;-67
2023/10/12 05:24:47;;;;;;;16.80;3.47;;;12.90;99.90;;;;;;7373009;19;20022;-67
2023/10/12 05:27:24;;;;;;;13.90;4.07;;;12.80;99.90;;;;;;7371986;19;20057;-67
2023/10/12 05:29:59;;;;;;;13.65;3.30;;;12.90;99.90;;;;;;7372745;19;20082;-69
2023/10/12 05:32:44;;;;;;;13.20;3.55;;;12.90;99.90;;;;;;7371573;19;20513;-68
2023/10/12 05:35:16;;;;;;;16.77;3.95;;;12.90;99.90;;;;;;7371741;19;20026;-68
2023/10/12 05:37:49;;;;;;;14.00;4.05;;;12.90;99.90;;;;;;7369621;19;20029;-66
2023/10/12 05:40:17;;;;;;;12.70;4.05;;;12.80;99.90;;;;;;7367498;19;20029;-65
2023/10/12 05:42:47;;;;;;;17.60;3.90;;;12.90;99.90;;;;;;7368958;19;20154;-66
2023/10/12 05:45:27;;;;;;;13.38;4.05;;;12.80;99.90;;;;;;7369674;19;20604;-65
2023/10/12 05:47:53;;;;;;;15.38;4.35;;;12.80;99.90;;;;;;7371402;19;20022;-66
2023/10/12 05:50:23;;;;;;;13.00;4.38;;;12.70;99.90;;;;;;7375513;19;20022;-66
2023/10/12 05:52:59;;;;;;;16.65;4.82;;;12.70;99.90;;;;;;7380770;19;20018;-66
2023/10/12 05:55:29;;;;;;;21.80;5.40;;;12.70;99.90;;;;;;7377911;19;20078;-66
2023/10/12 05:58:05;;;;;;;14.25;4.82;;;12.60;99.90;;;;;;7380328;19;20018;-66
2023/10/12 06:00:35;;;;;;;17.77;4.90;;;12.60;99.90;;;;;;7376987;19;20085;-66
2023/10/12 06:03:05;;;;;;;14.13;4.93;;;12.50;99.90;;;;;;7372810;19;20861;-66
2023/10/12 06:05:33;;;;;;;16.42;5.15;;;12.50;99.90;;;;;;7376124;19;20544;-66
2023/10/12 06:08:06;;;;;;;19.02;5.55;;;12.50;99.90;;;;;;7372048;19;20021;-65
2023/10/12 06:10:40;;;;;;;16.38;5.18;;;12.40;99.90;;;;;;7378471;19;20021;-65
2023/10/12 06:13:14;;;;;;;19.83;6.45;;;12.50;99.90;;;;;;7375168;19;20773;-66
2023/10/12 06:15:41;;;;;;;19.75;6.72;;;12.40;99.90;;;;;;7375456;19;20027;-65
2023/10/12 06:18:21;;;;;;;15.70;5.55;;;12.40;99.90;;;;;;7377687;19;20015;-64
2023/10/12 06:21:06;;;;;;;17.88;5.97;;;12.40;99.90;;;;;;7377002;19;20486;-66
2023/10/12 06:23:39;;;;;;;22.58;6.35;;;12.30;99.90;;;;;;7373382;19;20476;-67
2023/10/12 06:26:15;;;;;;;21.13;5.22;;;12.20;99.90;;;;;;7374407;19;20607;-64
2023/10/12 06:28:42;;;;;;;18.05;5.25;;;12.20;99.90;;;;;;7374589;19;20030;-66
2023/10/12 06:31:09;;;;;;;19.35;5.03;;;12.10;99.90;;;;;;7375339;19;20022;-65
2023/10/12 06:33:40;;;;;;;22.65;5.00;;;12.10;99.90;;;;;;7369644;19;20018;-65
2023/10/12 06:36:16;;;;;;;17.48;4.78;;;12.20;99.90;;;;;;7367828;19;20500;-66
2023/10/12 06:39:02;;;;;;;15.98;4.80;;;12.10;99.90;;;;;;7365890;19;20025;-67
2023/10/12 06:43:58;;;;;;;16.55;5.25;;;12.20;99.90;;;;;;7374720;19;20029;-67
2023/10/12 06:46:28;;;;;;;19.25;5.22;;;12.20;99.90;;;;;;7371317;19;20042;-67
2023/10/12 06:49:01;;;;;;;19.67;5.55;;;12.20;99.90;;;;;;7364549;19;20090;-67
2023/10/12 06:51:31;;;;;;;15.40;5.10;;;12.30;99.90;;;;;;7368713;19;20026;-67
2023/10/12 06:54:17;;;;;;;22.80;5.90;;;12.20;99.90;;;;;;7370078;19;20874;-67
2023/10/12 06:56:49;;;;;;;20.02;5.00;;;12.30;99.90;;;;;;7371929;19;20420;-67
2023/10/12 07:04:36;;;;;;;20.05;6.32;;;12.30;99.90;;;;;;7373417;19;20049;-67
2023/10/12 07:07:11;;;;;;;17.63;5.65;;;12.40;99.90;;;;;;7371930;19;20134;-66
2023/10/12 07:09:40;;;;;;;12.13;6.03;;;12.40;99.90;;;;;;7373989;19;20137;-67
2023/10/12 07:12:20;;;;;;;25.67;7.50;;;12.50;99.90;;;;;;7371086;19;20021;-66
2023/10/12 07:14:47;;;;;;;16.17;6.05;;;12.60;99.90;;;;;;7365450;19;20014;-65
2023/10/12 07:17:14;;;;;;;18.60;6.53;;;12.80;99.90;;;;;;7369847;19;20827;-65
2023/10/12 07:19:42;;;;;;;22.38;7.10;;;12.80;99.90;;;;;;7364804;19;20433;-65
2023/10/12 07:22:15;;;;;;;18.30;6.43;;;13.10;99.90;;;;;;7370956;19;20023;-66
2023/10/12 07:24:42;;;;;;;15.23;5.72;;;13.40;99.90;;;;;;7372376;19;20347;-67
2023/10/12 07:27:13;;;;;;;17.13;5.57;;;13.70;99.90;;;;;;7369182;19;20014;-68
2023/10/12 07:29:44;;;;;;;17.23;5.22;;;14.20;99.90;;;;;;7370236;19;20019;-69
2023/10/12 07:34:57;;;;;;;7.85;4.13;;;15.10;99.90;;;;;;7380527;19;20018;-67
2023/10/12 07:37:27;;;;;;;11.38;3.50;;;15.50;99.90;;;;;;7369181;19;20015;-64
2023/10/12 07:39:56;;;;;;;9.93;3.42;;;15.80;99.90;;;;;;7380860;19;20014;-69
2023/10/12 07:42:28;;;;;;;8.25;3.20;;;16.30;99.90;;;;;;7368353;19;20022;-65
2023/10/12 07:44:56;;;;;;;10.93;3.28;;;16.90;99.90;;;;;;7371091;19;20015;-65
2023/10/12 07:47:32;;;;;;;10.05;2.80;;;17.10;99.90;;;;;;7371048;19;20478;-67
2023/10/12 07:50:08;;;;;;;8.93;2.67;;;17.70;99.90;;;;;;7372446;19;20022;-69
2023/10/12 07:55:06;;;;;;;6.93;2.20;;;18.20;99.90;;;;;;7373170;19;20031;-69
2023/10/12 07:57:36;;;;;;;6.95;2.13;;;18.60;99.90;;;;;;7366563;19;20015;-68
2023/10/12 08:11:09;;;;;;;9.73;2.15;;;17.80;99.90;;;;;;7361264;19;20041;-65
2023/10/12 08:24:04;;;;;;;8.50;2.10;;;16.80;99.90;;;;;;7370121;19;20099;-65
2023/10/12 08:26:35;;;;;;;11.35;2.08;;;16.60;99.90;;;;;;7370548;19;20491;-65
2023/10/12 08:32:12;;;;;;;11.95;2.17;;;16.50;99.90;;;;;;7360735;19;20303;-69
2023/10/12 08:39:48;;;;;;;11.65;2.30;;;15.90;99.90;;;;;;7368710;19;20011;-64
2023/10/12 08:45:09;;;;;;;10.07;2.25;;;15.70;99.90;;;;;;7371339;19;20046;-63
2023/10/12 08:50:14;;;;;;;10.50;2.25;;;15.50;99.90;;;;;;7372458;19;20035;-65
2023/10/12 08:52:50;;;;;;;8.50;2.15;;;15.50;99.90;;;;;;7370982;19;20022;-68
2023/10/12 08:55:24;;;;;;;10.48;2.08;;;15.50;99.90;;;;;;7379394;19;20022;-67
2023/10/12 08:58:12;;;;;;;9.75;2.33;;;15.40;99.90;;;;;;7366936;19;20010;-64
2023/10/12 09:00:42;;;;;;;8.65;1.75;;;15.40;99.90;;;;;;7373626;19;20110;-67
2023/10/12 09:05:51;;;;;;;10.63;2.42;;;15.40;99.90;;;;;;7366954;19;20055;-65
2023/10/12 09:11:03;;;;;;;10.27;2.63;;;15.40;99.90;;;;;;7367435;19;20022;-64
2023/10/12 09:13:33;;;;;;;9.50;2.17;;;15.40;99.90;;;;;;7363132;19;20018;-64
2023/10/12 09:16:02;;;;;;;8.40;1.90;;;15.40;99.90;;;;;;7366838;19;20014;-65
2023/10/12 09:18:45;;;;;;;9.45;2.92;;;15.50;99.90;;;;;;7368886;19;20022;-64
2023/10/12 09:26:35;;;;;;;12.40;1.88;;;15.60;99.90;;;;;;7374781;19;20372;-65
2023/10/12 09:36:43;;;;;;;9.23;2.10;;;16.30;99.90;;;;;;7379713;19;20038;-67
2023/10/12 09:39:17;;;;;;;9.45;1.83;;;16.50;99.90;;;;;;7379013;19;20810;-67
2023/10/12 09:41:55;;;;;;;6.53;1.40;;;16.70;99.90;;;;;;7381368;19;20078;-67
2023/10/12 09:44:27;;;;;;;8.75;2.10;;;16.70;99.90;;;;;;7373095;19;20022;-64
2023/10/12 09:46:57;;;;;;;11.98;2.00;;;16.80;99.90;;;;;;7375401;19;20023;-67
2023/10/12 09:49:27;;;;;;;10.53;2.50;;;16.70;99.90;;;;;;7386670;19;20010;-67
2023/10/12 09:52:01;;;;;;;10.05;2.30;;;16.50;99.90;;;;;;7380620;19;20048;-67
2023/10/12 09:54:45;;;;;;;8.38;2.35;;;16.50;99.90;;;;;;7374251;19;20014;-65
2023/10/12 09:57:31;;;;;;;10.20;2.70;;;16.60;99.90;;;;;;7374430;19;20022;-64
2023/10/12 10:00:10;;;;;;;8.68;1.85;;;16.70;99.90;;;;;;7375895;19;20070;-63
2023/10/12 10:02:42;;;;;;;13.02;1.70;;;16.70;99.90;;;;;;7371645;19;20101;-66
2023/10/12 10:05:24;;;;;;;9.43;1.88;;;16.80;99.90;;;;;;7371444;19;20040;-69
2023/10/12 10:07:57;;;;;;;9.18;1.83;;;16.90;99.90;;;;;;7373503;19;20056;-68
2023/10/12 10:10:32;;;;;;;10.95;2.30;;;16.90;99.90;;;;;;7376377;19;20397;-68
2023/10/12 10:13:12;;;;;;;12.73;2.05;;;16.80;99.90;;;;;;7364670;19;20021;-68
2023/10/12 10:15:55;;;;;;;12.15;2.38;;;16.70;99.90;;;;;;7369698;19;20036;-65
2023/10/12 10:18:28;;;;;;;8.77;1.52;;;16.40;99.90;;;;;;7368444;19;20018;-68
2023/10/12 10:21:06;;;;;;;8.20;1.67;;;16.30;99.90;;;;;;7374876;19;20759;-68
2023/10/12 10:23:43;;;;;;;8.82;1.73;;;16.30;99.90;;;;;;7369592;19;20559;-68
2023/10/12 10:26:30;;;;;;;11.25;2.42;;;16.30;99.90;;;;;;7375990;19;20363;-68
2023/10/12 10:29:07;;;;;;;11.38;3.00;;;16.30;99.90;;;;;;7371718;19;20490;-64
2023/10/12 10:31:41;;;;;;;10.07;2.40;;;16.30;99.90;;;;;;7374823;19;20107;-68
2023/10/12 10:34:12;;;;;;;10.50;1.88;;;16.20;99.90;;;;;;7369043;19;20039;-64
2023/10/12 10:36:38;;;;;;;8.73;1.67;;;16.20;99.90;;;;;;7372094;19;20019;-63
2023/10/12 10:41:54;;;;;;;12.23;2.60;;;16.30;99.90;;;;;;7374961;19;20014;-69
2023/10/12 10:44:22;;;;;;;9.05;2.08;;;16.30;99.90;;;;;;7373063;19;20043;-66
2023/10/12 10:46:54;;;;;;;7.63;1.80;;;16.20;99.90;;;;;;7365713;19;20040;-65
2023/10/12 10:49:21;;;;;;;10.48;2.60;;;16.30;99.90;;;;;;7375637;19;20035;-69
2023/10/12 10:54:30;;;;;;;;;;;16.30;99.90;;;;;;7373753;19;20018;-69
2023/10/12 10:56:58;;;;;;;8.38;1.98;;;16.20;99.90;;;;;;7366002;19;19919;-65
2023/10/12 10:59:25;;;;;;;11.27;2.25;;;16.10;99.90;;;;;;7375389;19;20029;-68
2023/10/12 11:01:52;;;;;;;9.00;1.73;;;16.10;99.90;;;;;;7369630;19;20709;-70
2023/10/12 11:07:11;;;;;;;9.52;1.80;;;16.10;99.90;;;;;;7371286;19;20517;-68
2023/10/12 11:12:25;;;;;;;10.25;2.25;;;16.10;99.90;;;;;;7371291;19;20019;-65
2023/10/12 11:14:58;;;;;;;9.07;2.00;;;16.20;99.90;;;;;;7370918;19;20015;-69
2023/10/12 11:17:27;;;;;;;12.50;2.58;;;16.20;99.90;;;;;;7363452;19;20026;-69
2023/10/12 11:19:53;;;;;;;11.77;1.83;;;16.30;99.90;;;;;;7367971;19;20026;-65
2023/10/12 11:22:20;;;;;;;5.85;1.90;;;16.40;99.90;;;;;;7373106;19;20022;-69
2023/10/12 11:24:53;;;;;;;10.85;2.03;;;16.40;99.90;;;;;;7371017;19;20035;-65
2023/10/12 11:27:34;;;;;;;13.63;2.17;;;16.40;99.90;;;;;;7371808;19;20018;-69
2023/10/12 11:30:12;;;;;;;12.27;2.55;;;16.50;99.90;;;;;;7372628;19;20082;-68
2023/10/12 11:32:53;;;;;;;9.10;2.22;;;16.50;99.90;;;;;;7370293;19;20267;-69
2023/10/12 11:35:54;;;;;;;9.82;2.30;;;16.40;99.90;;;;;;7369423;19;20018;-66
2023/10/12 11:38:23;;;;;;;10.20;2.40;;;16.40;99.90;;;;;;7367032;19;20598;-69
2023/10/12 11:40:55;;;;;;;10.57;2.10;;;16.40;99.90;;;;;;7369351;19;20018;-69
2023/10/12 11:43:26;;;;;;;8.60;2.17;;;16.40;99.90;;;;;;7369465;19;20450;-65
2023/10/12 11:46:01;;;;;;;8.15;2.10;;;16.40;99.90;;;;;;7373785;19;20446;-69
2023/10/12 11:48:28;;;;;;;9.82;1.83;;;16.50;99.90;;;;;;7373017;19;20037;-66
2023/10/12 11:51:00;;;;;;;11.60;2.08;;;16.60;99.90;;;;;;7371039;19;20029;-65
2023/10/12 11:53:28;;;;;;;9.88;2.53;;;16.50;99.90;;;;;;7366615;19;20022;-65
2023/10/12 11:56:08;;;;;;;8.57;2.45;;;16.50;99.90;;;;;;7367245;19;21068;-65
2023/10/12 11:58:34;;;;;;;9.20;1.63;;;16.40;99.90;;;;;;7369616;19;20022;-69
2023/10/12 12:01:01;;;;;;;7.90;1.88;;;16.40;99.90;;;;;;7370779;19;20106;-65
2023/10/12 12:03:27;;;;;;;12.80;2.40;;;16.30;99.90;;;;;;7362304;19;20026;-69
2023/10/12 12:05:53;;;;;;;12.38;2.97;;;16.30;99.90;;;;;;7372942;19;20023;-70
2023/10/12 12:08:24;;;;;;;9.27;2.47;;;16.20;99.90;;;;;;7377851;19;20014;-70
2023/10/12 12:10:54;;;;;;;11.90;2.20;;;16.10;99.90;;;;;;7371709;19;20102;-64
2023/10/12 12:13:21;;;;;;;9.88;2.25;;;16.10;99.90;;;;;;7370674;19;20572;-65
2023/10/12 12:15:48;;;;;;;9.10;2.22;;;16.00;99.90;;;;;;7366752;19;20028;-65
2023/10/12 12:18:19;;;;;;;12.15;2.30;;;16.00;99.90;;;;;;7368104;19;20056;-60
2023/10/12 12:20:51;;;;;;;9.27;2.05;;;16.00;99.90;;;;;;7361527;19;20010;-65
2023/10/12 12:23:19;;;;;;;15.35;4.63;;;15.90;99.90;;;;;;7372206;19;20775;-65
2023/10/12 12:25:46;;;;;;;9.40;2.25;;;15.90;99.90;;;;;;7365867;19;20038;-66
2023/10/12 12:28:16;;;;;;;8.57;1.73;;;16.00;99.90;;;;;;7367145;19;20026;-66
2023/10/12 12:30:46;;;;;;;9.25;2.20;;;16.00;99.90;;;;;;7366366;19;20018;-64
2023/10/12 12:33:16;;;;;;;8.35;1.80;;;16.00;99.90;;;;;;7367134;19;20018;-69
2023/10/12 12:35:46;;;;;;;9.50;2.38;;;16.00;99.90;;;;;;7370782;19;20014;-70
2023/10/12 12:40:55;;;;;;;8.90;1.75;;;16.00;99.90;;;;;;7365948;19;20102;-69
2023/10/12 12:43:22;;;;;;;9.85;1.83;;;16.00;99.90;;;;;;7365523;19;20463;-66
2023/10/12 12:45:54;;;;;;;11.98;2.15;;;15.90;99.90;;;;;;7363398;19;20050;-66
2023/10/12 12:48:21;;;;;;;8.52;1.80;;;16.00;99.90;;;;;;7365485;19;20026;-66
2023/10/12 12:50:50;;;;;;;7.40;1.58;;;15.90;99.90;;;;;;7365811;19;20082;-69
2023/10/12 12:53:22;;;;;;;6.60;1.88;;;15.90;99.90;;;;;;7367336;19;20022;-65
2023/10/12 12:55:48;;;;;;;6.88;1.42;;;15.90;99.90;;;;;;7370028;19;20022;-65
2023/10/12 12:58:17;;;;;;;11.05;2.00;;;15.90;99.90;;;;;;7364037;19;20022;-66
2023/10/12 13:00:46;;;;;;;8.70;2.17;;;15.80;99.90;;;;;;7365970;19;20021;-69
2023/10/12 13:03:16;;;;;;;8.32;1.65;;;15.70;99.90;;;;;;7365811;19;20018;-66
2023/10/12 13:05:43;;;;;;;12.32;2.42;;;15.70;99.90;;;;;;7363785;19;20027;-69
2023/10/12 13:08:11;;;;;;;12.77;1.85;;;15.70;99.90;;;;;;7368662;19;21306;-65
2023/10/12 13:10:38;;;;;;;12.32;1.90;;;15.60;99.90;;;;;;7369022;19;20019;-69
2023/10/12 13:13:05;;;;;;;7.95;2.15;;;15.60;99.90;;;;;;7359608;19;20022;-65
2023/10/12 13:15:41;;;;;;;43.80;32.53;;;15.50;99.90;;;;;;7363715;19;20021;-74
2023/10/12 13:18:14;;;;;;;16.73;2.58;;;15.50;99.90;;;;;;7365376;19;20015;-69
2023/10/12 13:20:47;;;;;;;9.40;2.83;;;15.40;99.90;;;;;;7373068;19;20018;-70
2023/10/12 13:23:17;;;;;;;8.38;1.92;;;15.50;99.90;;;;;;7371331;19;20018;-68
2023/10/12 13:25:44;;;;;;;6.75;2.03;;;15.40;99.90;;;;;;7366920;19;20018;-68
2023/10/12 13:28:12;;;;;;;11.30;2.00;;;15.40;99.90;;;;;;7368017;19;20097;-66
2023/10/12 13:30:38;;;;;;;8.57;1.98;;;15.40;99.90;;;;;;7378522;19;20018;-65
2023/10/12 13:33:06;;;;;;;11.20;2.00;;;15.30;99.90;;;;;;7371462;19;20027;-62
2023/10/12 13:35:41;;;;;;;9.88;2.28;;;15.30;99.90;;;;;;7373466;19;20019;-65
2023/10/12 13:38:10;;;;;;;11.23;2.95;;;15.20;99.90;;;;;;7377534;19;20022;-65
2023/10/12 13:40:40;;;;;;;11.20;2.40;;;15.10;99.90;;;;;;7375322;19;20047;-66
2023/10/12 13:43:14;;;;;;;12.90;2.78;;;15.10;99.90;;;;;;7376205;19;20711;-66
2023/10/12 13:45:48;;;;;;;11.23;2.42;;;14.90;99.90;;;;;;7378364;19;20056;-66
2023/10/12 13:48:24;;;;;;;9.43;2.38;;;14.90;99.90;;;;;;7377177;19;20078;-65
2023/10/12 13:50:53;;;;;;;11.02;2.17;;;14.60;99.90;;;;;;7381146;19;20378;-66
2023/10/12 13:53:19;;;;;;;11.15;2.65;;;14.60;99.90;;;;;;7381068;19;20018;-65
2023/10/12 13:55:48;;;;;;;9.32;2.10;;;14.60;99.90;;;;;;7378114;19;20450;-65
2023/10/12 13:58:15;;;;;;;11.80;2.88;;;14.50;99.90;;;;;;7380933;19;20378;-65
2023/10/12 14:00:42;;;;;;;11.93;2.72;;;14.40;99.90;;;;;;7384087;19;20015;-65
2023/10/12 14:03:13;;;;;;;10.50;2.95;;;14.30;99.90;;;;;;7380394;19;20025;-66
2023/10/12 14:05:40;;;;;;;15.55;3.20;;;14.30;99.90;;;;;;7376942;19;20025;-67
2023/10/12 14:08:08;;;;;;;13.18;2.83;;;14.10;99.90;;;;;;7375110;19;20025;-66
2023/10/12 14:10:42;;;;;;;10.25;2.80;;;14.00;99.90;;;;;;7380025;19;20014;-66
2023/10/12 14:13:11;;;;;;;13.25;2.88;;;14.00;99.90;;;;;;7381457;19;20019;-67
2023/10/12 14:15:38;;;;;;;11.00;2.92;;;14.00;99.90;;;;;;7377482;19;20497;-67
2023/10/12 14:18:10;;;;;;;10.77;2.83;;;13.90;99.90;;;;;;7384336;19;20026;-66
2023/10/12 14:20:37;;;;;;;8.90;2.67;;;13.90;99.90;;;;;;7383212;19;20018;-66
2023/10/12 14:23:05;;;;;;;11.23;2.90;;;13.80;99.90;;;;;;7381870;19;20025;-65
2023/10/12 14:25:37;;;;;;;12.68;2.30;;;13.80;99.90;;;;;;7378756;19;20768;-65
2023/10/12 14:28:07;;;;;;;12.30;3.55;;;13.70;99.90;;;;;;7375834;19;20010;-65
2023/10/12 14:30:34;;;;;;;15.50;2.97;;;13.70;99.90;;;;;;7377356;19;20018;-64
2023/10/12 14:33:02;;;;;;;12.82;3.60;;;13.70;99.90;;;;;;7378306;19;20028;-66
2023/10/12 14:35:39;;;;;;;15.23;3.78;;;13.70;99.90;;;;;;7378178;19;20014;-64
2023/10/12 14:38:06;;;;;;;10.15;3.85;;;13.70;99.90;;;;;;7379358;19;20018;-66
2023/10/12 14:40:40;;;;;;;12.32;2.83;;;13.60;99.90;;;;;;7374295;19;20504;-66
2023/10/12 14:43:14;;;;;;;8.25;2.67;;;13.70;99.90;;;;;;7375410;19;20538;-65
2023/10/12 14:45:49;;;;;;;9.50;3.30;;;13.60;99.90;;;;;;7378344;19;20015;-65
2023/10/12 14:48:16;;;;;;;14.45;3.08;;;13.60;99.90;;;;;;7376654;19;20686;-64
2023/10/12 14:50:50;;;;;;;11.60;3.78;;;13.60;99.90;;;;;;7376764;19;20018;-64
2023/10/12 14:53:21;;;;;;;12.40;3.03;;;13.60;99.90;;;;;;7380242;19;20130;-65
2023/10/12 14:55:52;;;;;;;10.15;3.28;;;13.60;99.90;;;;;;7381705;19;20470;-65
2023/10/12 14:58:19;;;;;;;15.48;3.35;;;13.60;99.90;;;;;;7378377;19;20416;-66
2023/10/12 15:00:50;;;;;;;12.18;3.13;;;13.60;99.90;;;;;;7375824;19;20030;-64
2023/10/12 15:03:21;;;;;;;16.45;3.55;;;13.50;99.90;;;;;;7378887;19;20378;-64
2023/10/12 15:05:52;;;;;;;13.68;3.67;;;13.50;99.90;;;;;;7371564;19;20025;-66
2023/10/12 15:08:20;;;;;;;14.00;3.67;;;13.60;99.90;;;;;;7375243;19;20674;-64
2023/10/12 15:10:46;;;;;;;14.55;3.25;;;13.50;99.90;;;;;;7376307;19;20466;-64
2023/10/12 15:13:17;;;;;;;12.38;3.47;;;13.50;99.90;;;;;;7378426;19;20019;-64
2023/10/12 15:15:47;;;;;;;12.85;4.00;;;13.50;99.90;;;;;;7381841;19;20031;-64
2023/10/12 15:18:15;;;;;;;12.57;3.47;;;13.60;99.90;;;;;;7376377;19;20022;-64
2023/10/12 15:20:44;;;;;;;11.75;3.38;;;13.60;99.90;;;;;;7371793;19;20735;-64
2023/10/12 15:23:16;;;;;;;10.55;3.88;;;13.70;99.90;;;;;;7372492;19;20098;-64
2023/10/12 15:25:43;;;;;;;14.80;4.50;;;13.60;99.90;;;;;;7376696;19;20018;-65
2023/10/12 15:28:11;;;;;;;12.93;4.57;;;13.60;99.90;;;;;;7372126;19;20052;-64
2023/10/12 15:30:42;;;;;;;11.27;3.80;;;13.60;99.90;;;;;;7375333;19;20018;-64
2023/10/12 15:33:10;;;;;;;13.05;4.00;;;13.60;99.90;;;;;;7374826;19;20014;-65
2023/10/12 15:35:36;;;;;;;16.45;8.18;;;13.60;99.90;;;;;;7370958;19;20022;-64
2023/10/12 15:38:03;;;;;;;13.65;4.75;;;13.60;99.90;;;;;;7374863;19;20011;-65